Aviation Digital Data Service (ADDS)

Output produced by METARs form (1302 UTC 17 January 2017)
found at http://aviationweather.gov/adds/metars/
 
KAGC 171139Z 1712/1812 17007KT 1 1/2SM -RA BR BKN040 WS020/21035KT 
     FM171600 20008KT 5SM -RA OVC008 WS020/20035KT 
     FM172100 23010KT 6SM -SHRA OVC010 
     FM180200 24008KT P6SM VCSH OVC008